Ana Sayfa
METAR-TAF:

METAR-TAF

Havaalanları :

Dortmund, Almanya

Enlem: 51-31N, Boylam: 007-37E, yükseklik: 127 m

Güncel hava durumu gözlemi

Rapor saat 20:50 UTC de 44 dakika önce yapıldı.
Rüzgar doğudan 7 kt, kuzeydoğu ve güneydoğu arasında değişken
Sıcaklık 2°C
Nem 69%
Basınç 1031 hPa
Görüş mesafesi 10 km veya daha fazla
1500 m altında bulut yok ve kümülonimbus yok

METAR: EDLW 172050Z 08007KT 050V140 CAVOK 02/M03 Q1031

Saat: 22:34 (21:34 UTC)

Tahmin

Rapor saat 17:00 UTC de 4 saat ve 34 dakika önce yapıldı.
Ayın 17'si saat 18 UTC'den ayın 18'si saat 18 UTC'ye kadar geçerli Tahmin
Rüzgar doğu/kuzeydoğudan 7 kt
Görüş mesafesi 10 km veya daha fazla
1500 m altında bulut yok ve kümülonimbus yok
Geçici
ayın 18'si saat 11 UTC'den ayın 18'si saat 16 UTC'ye kadar
Rüzgar kuzeydoğudan 12 kt

TAF: EDLW 171700Z 1718/1818 06007KT CAVOK TEMPO 1811/1816 05012KT

4.000'den fazla havaalanı için hava durumu gözlemleri ve tahminleri (METAR ve TAF raporları).

Kullanılabilir istasyonlar harita üzerinde sarı ve kırmızı noktalarla gösterilir.

İstasyonun adını görmek için fareyi noktanın üzerinde gezdirin.

Sonrasında hava gözlem ve tahminlerini görmek için tıklayın.

Haritayı değiştirmek için: yaklaştırmak için siyah artı işaretli yeşil düğmeye ve uzaklaştırmak için de eksi işaretli düğmeye hızla tıklayın; bitişik haritalar için yeşil okları kullanın.


METAR-TAF: